CheckWX is a tool to help pilots better visualize weather data.  It is not intended as a substitute for an official pre-flight weather briefing.

07:45:52 UTC

KLBE METAR
Arnold Palmer Regional Airport
Latrobe, Pennsylvania, USA
Current

11 mins ago

KLBE 150735Z AUTO 00000KT 10SM CLR 13/13 A3024 RMK AO2
Observed
Sep-15 @ 07:35 UTC
Visibility
10 SM
Flight Rules
VFR
Cloud Levels
  • Clear skies
Temperature
13°C / 55°F
Dewpoint
13°C / 55°F
Humidity
100%
Altimeter
30.24" Hg
Pressure
1024.02 hPa
Previous

31 mins ago

KLBE 150715Z AUTO 00000KT 10SM CLR 12/12 A3024 RMK AO2
Observed
Sep-15 @ 07:15 UTC
Visibility
10 SM
Flight Rules
VFR
Cloud Levels
  • Clear skies
Temperature
12°C / 54°F
Dewpoint
12°C / 54°F
Humidity
100%
Altimeter
30.24" Hg
Pressure
1024.02 hPa
Previous

51 mins ago

KLBE 150655Z AUTO 00000KT 10SM CLR 13/13 A3024 RMK AO2
Observed
Sep-15 @ 06:55 UTC
Visibility
10 SM
Flight Rules
VFR
Cloud Levels
  • Clear skies
Temperature
13°C / 55°F
Dewpoint
13°C / 55°F
Humidity
100%
Altimeter
30.24" Hg
Pressure
1024.02 hPa